Friday, October 19, 2018, 7:29 AM EDT
Back to Local

KITH, Ithaca, Ithaca Tompkins Regional Airport

Location: Ithaca, NY, United States Lat: 42.491
Local Time: 7:29 AM EDT (11:29 GMT) Lon: -76.458
Time Zone: US/Eastern Elev: 1099 ft

Show me the last for .
Show Coded

Time T Td Feel RH Dir Speed Gust Alt SLP Vis Weather Sky Remarks
2018-10-19 06:56 34 29 27 81 190° 8 - 30.22 30.25 10 CLR None
2018-10-19 06:30 34 28 28 80 180° 7 - 30.23 - 10 CLR None
2018-10-19 05:56 33 28 26 81 190° 8 - 30.23 30.26 10 CLR None
2018-10-19 04:56 31 28 23 88 180° 8 - 30.25 30.27 10 CLR None
2018-10-19 03:56 30 27 25 88 170° 5 - 30.26 30.29 10 CLR None
2018-10-19 02:56 30 28 24 92 150° 6 - 30.26 30.29 10 CLR None
2018-10-19 01:56 26 24 21 92 150° 5 - 30.27 30.30 10 CLR 6-hr Min Temp (2am): 26.1°F
6-hr Max Temp (2am): 28.9°F
2018-10-19 00:56 27 25 22 92 150° 5 - 30.27 30.30 10 CLR 24-hr Min Temp (1am): 27.0°F
24-hr Max Temp (1am): 43.0°F
2018-10-18 23:56 27 25 23 92 160° 3 - 30.28 30.32 10 CLR None
2018-10-18 22:56 27 25 23 92 140° 3 - 30.30 30.34 10 CLR None
2018-10-18 21:56 27 25 - 92 - Calm - 30.32 30.35 10 CLR None
2018-10-18 20:56 28 26 - 92 - Calm - 30.32 30.36 10 CLR None
2018-10-18 19:56 29 26 - 88 - Calm - 30.34 30.38 10 CLR 6-hr Min Temp (8pm): 28.9°F
6-hr Max Temp (8pm): 43.0°F
2018-10-18 18:56 35 28 32 75 330° 3 - 30.34 30.37 10 CLR None
2018-10-18 17:56 39 26 31 59 290° 13 - 30.34 30.37 10 CLR None
2018-10-18 16:56 41 26 32 54 300° 13 21 30.35 30.38 10 SCT043 None
2018-10-18 15:56 41 26 34 54 290° 12 - 30.36 30.39 10 SCT043 None
2018-10-18 14:56 41 26 34 54 300° 13 - 30.37 30.40 10 BKN042 None
2018-10-18 13:56 40 24 29 52 290° 16 24 30.38 30.41 10 BKN040 6-hr Min Temp (2pm): 30.0°F
6-hr Max Temp (2pm): 41.0°F
2018-10-18 12:56 37 25 26 61 290° 15 21 30.40 30.43 10 BKN040 None
2018-10-18 11:56 37 24 26 59 310° 16 23 30.40 30.43 10 BKN043 None
2018-10-18 10:56 36 23 24 58 320° 14 23 30.39 30.42 10 SCT041 None
2018-10-18 09:56 34 22 25 60 330° 14 - 30.39 30.42 10 SCT027 None
2018-10-18 08:56 32 25 20 74 330° 13 18 30.37 30.40 10 FEW027 None
2018-10-18 07:56 30 25 22 81 320° 9 - 30.35 30.39 10 FEW030 6-hr Precip Total (8am): 0.03"
24-hr Precip Total (8am): 0.09"
6-hr Min Temp (8am): 30.0°F
6-hr Max Temp (8am): 33.1°F

Support USWX by starting your Amazon purchase here.